Time;durP1;ratioP1;P1;durP2;ratioP2;P2;SDS_P1;SDS_P2;PMS_P1;PMS_P2;Temp;Humidity;BMP_temperature;BMP_pressure;BME280_temperature;BME280_humidity;BME280_pressure;Samples;Min_cycle;Max_cycle;Signal;HPM_P1;HPM_P2
2023/06/22 00:02:16;;;;;;;;;;;;;;;24.48;68.97;100583.25;5404238;32;35388;-68
2023/06/22 00:05:18;;;;;;;;;;;;;;;24.46;69.16;100591.44;5407758;32;34169;-81
2023/06/22 00:08:20;;;;;;;;;;;;;;;24.45;69.58;100595.09;5402354;32;34295;-70
2023/06/22 00:11:23;;;;;;;;;;;;;;;25.25;66.62;100599.13;5404693;32;34160;-68
2023/06/22 00:14:25;;;;;;;;;;;;;;;24.83;67.25;100591.47;5406598;32;35532;-70
2023/06/22 00:17:27;;;;;;;;;;;;;;;25.24;66.87;100589.34;5403765;32;35069;-76
2023/06/22 00:20:29;;;;;;;;;;;;;;;25.66;65.70;100592.34;5408078;32;35563;-76
2023/06/22 00:23:34;;;;;;;;;;;;;;;24.29;70.27;100601.06;5390129;32;34941;-77
2023/06/22 00:26:36;;;;;;;;;;;;;;;24.02;73.34;100606.28;5405913;32;34455;-69
2023/06/22 00:29:38;;;;;;;;;;;;;;;24.35;71.58;100605.03;5401252;32;34318;-81
2023/06/22 00:32:40;;;;;;;;;;;;;;;24.25;72.45;100615.75;5405885;32;34257;-69
2023/06/22 00:35:42;;;;;;;;;;;;;;;23.87;73.88;100618.44;5401483;32;35518;-76
2023/06/22 00:38:44;;;;;;;;;;;;;;;25.32;68.51;100613.66;5401313;32;35508;-69
2023/06/22 00:41:46;;;;;;;;;;;;;;;25.12;67.92;100598.62;5403586;32;35921;-69
2023/06/22 00:44:48;;;;;;;;;;;;;;;24.79;68.83;100600.81;5397894;32;34319;-68
2023/06/22 00:47:53;;;;;;;;;;;;;;;25.66;64.02;100599.56;5406436;32;36174;-76
2023/06/22 00:50:55;;;;;;;;;;;;;;;25.59;64.62;100598.50;5390337;32;34154;-69
2023/06/22 00:53:58;;;;;;;;;;;;;;;25.47;63.89;100599.69;5402197;32;35389;-69
2023/06/22 00:57:00;;;;;;;;;;;;;;;25.14;65.33;100598.47;5392534;32;35560;-75
2023/06/22 01:00:11;;;;;;;;;;;;;;;24.42;69.91;100594.56;5401396;32;35290;-69
2023/06/22 01:03:13;;;;;;;;;;;;;;;24.42;69.71;100584.66;5406056;32;34427;-69
2023/06/22 01:06:15;;;;;;;;;;;;;;;25.59;62.32;100585.03;5401566;32;35256;-77
2023/06/22 01:09:20;;;;;;;;;;;;;;;25.84;60.08;100592.41;5404060;32;34459;-69
2023/06/22 01:12:22;;;;;;;;;;;;;;;25.87;59.05;100580.47;5390446;32;35362;-75
2023/06/22 01:15:37;;;;;;;;;;;;;;;25.64;59.49;100588.12;5400797;32;34315;-77
2023/06/22 01:18:40;;;;;;;;;;;;;;;24.78;63.22;100584.84;5402827;32;35584;-76
2023/06/22 01:21:42;;;;;;;;;;;;;;;25.05;62.47;100594.81;5388819;32;34251;-76
2023/06/22 01:24:51;;;;;;;;;;;;;;;24.87;63.13;100588.50;5393159;32;35062;-69
2023/06/22 01:27:57;;;;;;;;;;;;;;;25.05;61.81;100589.44;5399417;32;34357;-68
2023/06/22 01:31:05;;;;;;;;;;;;;;;25.45;60.13;100589.09;5390543;32;35420;-76
2023/06/22 01:34:07;;;;;;;;;;;;;;;25.93;58.25;100580.69;5402698;32;34323;-68
2023/06/22 01:37:09;;;;;;;;;;;;;;;26.44;56.56;100587.19;5401953;32;34248;-75
2023/06/22 01:40:11;;;;;;;;;;;;;;;26.22;57.14;100584.16;5403977;32;34367;-68
2023/06/22 01:43:13;;;;;;;;;;;;;;;26.24;57.51;100579.44;5383815;32;34318;-81
2023/06/22 01:46:15;;;;;;;;;;;;;;;24.79;63.20;100594.59;5391126;32;34202;-82
2023/06/22 01:49:17;;;;;;;;;;;;;;;25.32;62.23;100591.28;5403603;32;34636;-77
2023/06/22 01:52:20;;;;;;;;;;;;;;;25.09;63.25;100583.63;5403067;32;37062;-77
2023/06/22 01:55:23;;;;;;;;;;;;;;;24.40;68.61;100583.09;5406579;32;34250;-77
2023/06/22 01:58:25;;;;;;;;;;;;;;;24.62;68.14;100595.38;5407129;32;34123;-69
2023/06/22 02:01:28;;;;;;;;;;;;;;;24.86;67.34;100590.34;5404910;32;35585;-69
2023/06/22 02:04:34;;;;;;;;;;;;;;;24.64;67.97;100591.53;5400584;32;34383;-69
2023/06/22 02:07:41;;;;;;;;;;;;;;;24.73;68.19;100589.78;5405354;32;34124;-68
2023/06/22 02:10:43;;;;;;;;;;;;;;;24.50;70.03;100589.31;5402710;32;34476;-69
2023/06/22 02:13:45;;;;;;;;;;;;;;;24.60;69.70;100595.50;5388694;32;34401;-76
2023/06/22 02:16:47;;;;;;;;;;;;;;;24.96;68.71;100606.44;5392774;32;34271;-76
2023/06/22 02:19:49;;;;;;;;;;;;;;;24.68;70.69;100602.84;5400177;32;34163;-68
2023/06/22 02:22:51;;;;;;;;;;;;;;;24.46;72.04;100598.62;5405650;32;34158;-69
2023/06/22 02:25:53;;;;;;;;;;;;;;;24.12;73.71;100606.28;5402504;32;35496;-74
2023/06/22 02:28:56;;;;;;;;;;;;;;;23.95;75.26;100619.41;5377961;32;33718;-68
2023/06/22 02:31:58;;;;;;;;;;;;;;;24.19;73.78;100623.53;5402309;32;34443;-76
2023/06/22 02:35:03;;;;;;;;;;;;;;;24.00;75.12;100606.41;5402237;32;35063;-69
2023/06/22 02:38:06;;;;;;;;;;;;;;;24.08;75.27;100613.75;5406802;32;33950;-68
2023/06/22 02:41:07;;;;;;;;;;;;;;;24.56;72.93;100610.22;5401470;32;35768;-68
2023/06/22 02:44:09;;;;;;;;;;;;;;;24.36;72.92;100609.41;5405942;32;35489;-68
2023/06/22 02:47:11;;;;;;;;;;;;;;;24.31;73.31;100617.88;5402433;32;34542;-81
2023/06/22 02:50:13;;;;;;;;;;;;;;;24.01;74.54;100624.22;5405993;32;34350;-69
2023/06/22 02:53:15;;;;;;;;;;;;;;;24.06;74.82;100626.50;5392554;32;34201;-68
2023/06/22 02:56:17;;;;;;;;;;;;;;;24.80;70.96;100618.66;5378404;32;34268;-68
2023/06/22 02:59:23;;;;;;;;;;;;;;;24.62;71.44;100625.78;5407989;32;34184;-82
2023/06/22 03:02:26;;;;;;;;;;;;;;;23.86;75.64;100625.62;5404710;32;34135;-68
2023/06/22 03:05:28;;;;;;;;;;;;;;;23.72;74.19;100624.22;5403791;32;34253;-76
2023/06/22 03:08:30;;;;;;;;;;;;;;;24.58;70.74;100632.41;5404062;32;35346;-77
2023/06/22 03:11:33;;;;;;;;;;;;;;;24.22;71.47;100624.09;5406993;32;34238;-69
2023/06/22 03:14:35;;;;;;;;;;;;;;;23.37;75.37;100626.47;5407355;32;35556;-68
2023/06/22 03:17:38;;;;;;;;;;;;;;;24.35;70.79;100617.63;5402588;32;34319;-69
2023/06/22 03:20:40;;;;;;;;;;;;;;;23.90;70.92;100619.00;5394620;32;34925;-67
2023/06/22 03:23:42;;;;;;;;;;;;;;;24.40;69.08;100624.22;5404564;32;34468;-69
2023/06/22 03:26:46;;;;;;;;;;;;;;;23.84;71.65;100633.00;5408737;32;34240;-68
2023/06/22 03:29:48;;;;;;;;;;;;;;;23.93;71.80;100624.09;5402428;32;34281;-69
2023/06/22 03:32:50;;;;;;;;;;;;;;;23.62;72.66;100625.16;5402812;32;34341;-75
2023/06/22 03:35:53;;;;;;;;;;;;;;;24.82;67.18;100627.41;5402784;32;34633;-75
2023/06/22 03:38:55;;;;;;;;;;;;;;;23.91;70.06;100622.53;5406803;32;34093;-68
2023/06/22 03:41:57;;;;;;;;;;;;;;;23.80;71.52;100622.66;5405230;32;34738;-69
2023/06/22 03:45:00;;;;;;;;;;;;;;;24.58;67.48;100617.13;5400246;32;34339;-75
2023/06/22 03:48:02;;;;;;;;;;;;;;;23.45;72.19;100615.94;5408330;32;35638;-69
2023/06/22 03:51:04;;;;;;;;;;;;;;;23.72;71.17;100620.69;5401669;32;34277;-69
2023/06/22 03:54:06;;;;;;;;;;;;;;;23.74;71.79;100619.53;5406052;32;34283;-69
2023/06/22 03:57:09;;;;;;;;;;;;;;;24.37;69.74;100615.63;5406892;32;34270;-76
2023/06/22 04:00:11;;;;;;;;;;;;;;;24.96;67.21;100627.94;5403250;32;34156;-68
2023/06/22 04:03:13;;;;;;;;;;;;;;;24.61;68.88;100628.62;5403762;32;34415;-77
2023/06/22 04:06:15;;;;;;;;;;;;;;;24.65;68.46;100638.06;5388530;32;34518;-68
2023/06/22 04:09:17;;;;;;;;;;;;;;;24.15;70.27;100633.72;5406070;32;35127;-68
2023/06/22 04:12:19;;;;;;;;;;;;;;;24.22;70.01;100631.31;5403486;32;35449;-76
2023/06/22 04:15:22;;;;;;;;;;;;;;;23.81;70.36;100652.03;5401265;32;34127;-76
2023/06/22 04:18:23;;;;;;;;;;;;;;;24.16;69.73;100648.84;5392173;32;36581;-76
2023/06/22 04:21:25;;;;;;;;;;;;;;;24.33;68.72;100644.56;5402804;32;35440;-76
2023/06/22 04:24:27;;;;;;;;;;;;;;;25.09;64.58;100644.63;5407318;32;34322;-68
2023/06/22 04:27:29;;;;;;;;;;;;;;;25.60;62.31;100638.69;5403847;32;34300;-76
2023/06/22 04:30:32;;;;;;;;;;;;;;;25.26;62.62;100638.47;5393460;32;34441;-68
2023/06/22 04:33:34;;;;;;;;;;;;;;;25.56;61.50;100641.84;5389839;32;35615;-77
2023/06/22 04:36:37;;;;;;;;;;;;;;;24.33;66.02;100639.19;5405908;32;35173;-69
2023/06/22 04:39:39;;;;;;;;;;;;;;;25.14;63.50;100639.66;5405668;32;34139;-69
2023/06/22 04:42:51;;;;;;;;;;;;;;;25.36;62.92;100641.09;5399288;32;35459;-80
2023/06/22 04:45:54;;;;;;;;;;;;;;;25.91;61.36;100643.78;5393103;32;34383;-70
2023/06/22 04:48:56;;;;;;;;;;;;;;;25.13;63.62;100646.03;5403798;32;35365;-76
2023/06/22 04:51:58;;;;;;;;;;;;;;;25.36;63.12;100644.63;5404801;32;34240;-80
2023/06/22 04:55:00;;;;;;;;;;;;;;;26.71;58.55;100639.25;5404077;32;35383;-70
2023/06/22 04:58:04;;;;;;;;;;;;;;;25.43;62.62;100655.62;5402957;32;34358;-77
2023/06/22 05:01:08;;;;;;;;;;;;;;;25.78;62.91;100654.91;5405383;32;34688;-69
2023/06/22 05:04:10;;;;;;;;;;;;;;;25.34;63.51;100654.72;5402184;32;35678;-68
2023/06/22 05:07:12;;;;;;;;;;;;;;;26.31;60.66;100658.63;5406994;32;35367;-68
2023/06/22 05:10:15;;;;;;;;;;;;;;;26.80;58.90;100656.34;5388973;32;35285;-68
2023/06/22 05:13:16;;;;;;;;;;;;;;;26.80;56.94;100659.91;5406630;32;35766;-68
2023/06/22 05:16:23;;;;;;;;;;;;;;;26.68;57.69;100655.75;5406601;32;34706;-69
2023/06/22 05:19:31;;;;;;;;;;;;;;;27.03;56.54;100659.34;5401673;32;34407;-69
2023/06/22 05:22:33;;;;;;;;;;;;;;;27.39;55.37;100665.47;5406709;32;34456;-69
2023/06/22 05:25:35;;;;;;;;;;;;;;;27.50;54.65;100668.75;5403201;32;34761;-78
2023/06/22 05:28:37;;;;;;;;;;;;;;;27.11;54.54;100670.22;5394502;32;32891;-77
2023/06/22 05:31:40;;;;;;;;;;;;;;;28.39;51.72;100669.97;5402436;32;36599;-77
2023/06/22 05:34:42;;;;;;;;;;;;;;;28.50;50.17;100674.22;5405854;32;34366;-73
2023/06/22 05:37:44;;;;;;;;;;;;;;;28.17;50.61;100684.97;5409075;32;36032;-74
2023/06/22 05:40:46;;;;;;;;;;;;;;;27.97;51.36;100689.84;5401972;32;34203;-74
2023/06/22 05:43:48;;;;;;;;;;;;;;;26.66;54.48;100684.72;5375206;32;35557;-73
2023/06/22 05:46:50;;;;;;;;;;;;;;;27.93;51.72;100693.03;5364531;32;33743;-76
2023/06/22 05:49:52;;;;;;;;;;;;;;;28.49;49.04;100686.88;5366354;32;34166;-81
2023/06/22 05:52:54;;;;;;;;;;;;;;;29.83;44.12;100684.37;5365579;32;34216;-78
2023/06/22 05:55:56;;;;;;;;;;;;;;;30.03;44.22;100681.22;5349862;32;34611;-67
2023/06/22 05:58:58;;;;;;;;;;;;;;;29.56;45.12;100684.84;5363126;32;34521;-69
2023/06/22 06:02:00;;;;;;;;;;;;;;;29.48;45.05;100699.22;5359344;32;33020;-71
2023/06/22 06:05:03;;;;;;;;;;;;;;;29.65;43.95;100697.34;5360966;32;34443;-79
2023/06/22 06:08:05;;;;;;;;;;;;;;;31.24;40.99;100687.53;5357384;32;35545;-83
2023/06/22 06:11:07;;;;;;;;;;;;;;;31.10;40.32;100684.75;5351637;32;32678;-70
2023/06/22 06:14:09;;;;;;;;;;;;;;;30.76;41.26;100690.69;5347043;32;33321;-70
2023/06/22 06:17:13;;;;;;;;;;;;;;;32.14;38.64;100683.63;5340575;32;34257;-78
2023/06/22 06:20:17;;;;;;;;;;;;;;;34.12;34.38;100686.84;5334499;32;35199;-77
2023/06/22 06:23:20;;;;;;;;;;;;;;;34.59;33.36;100684.22;5357515;32;34533;-71
2023/06/22 06:26:27;;;;;;;;;;;;;;;32.88;36.27;100681.41;5362839;32;34789;-71
2023/06/22 06:29:29;;;;;;;;;;;;;;;34.90;32.30;100676.19;5358134;32;35776;-88
2023/06/22 06:32:31;;;;;;;;;;;;;;;32.20;36.86;100677.41;5364343;32;36119;-85
2023/06/22 06:35:37;;;;;;;;;;;;;;;31.77;37.96;100677.34;5354219;32;34241;-74
2023/06/22 06:38:39;;;;;;;;;;;;;;;32.02;37.23;100671.56;5356607;32;36337;-70
2023/06/22 06:41:42;;;;;;;;;;;;;;;33.56;33.94;100667.16;5361113;32;34083;-86
2023/06/22 06:44:44;;;;;;;;;;;;;;;32.41;36.12;100673.03;5360597;32;32535;-77
2023/06/22 06:47:46;;;;;;;;;;;;;;;35.26;30.50;100658.50;5355676;32;34891;-72
2023/06/22 06:50:48;;;;;;;;;;;;;;;33.71;33.07;100662.38;5361983;32;35586;-70
2023/06/22 06:53:50;;;;;;;;;;;;;;;34.74;31.28;100665.72;5362326;32;33663;-70
2023/06/22 06:56:53;;;;;;;;;;;;;;;34.05;31.81;100671.50;5342288;32;34293;-73
2023/06/22 06:59:56;;;;;;;;;;;;;;;34.09;30.65;100662.72;5349066;32;36189;-81
2023/06/22 07:02:58;;;;;;;;;;;;;;;33.50;31.28;100665.25;5356460;32;37279;-75
2023/06/22 07:06:00;;;;;;;;;;;;;;;33.40;31.71;100673.78;5350373;32;35187;-71
2023/06/22 07:09:03;;;;;;;;;;;;;;;34.62;28.65;100661.94;5367694;32;34689;-80
2023/06/22 07:12:06;;;;;;;;;;;;;;;33.87;29.95;100656.53;5365579;32;36038;-69
2023/06/22 07:15:08;;;;;;;;;;;;;;;33.59;30.73;100653.09;5367543;32;35588;-68
2023/06/22 07:18:11;;;;;;;;;;;;;;;34.39;29.27;100652.28;5356678;32;35719;-80
2023/06/22 07:21:13;;;;;;;;;;;;;;;35.27;28.53;100646.50;5368261;32;36391;-75
2023/06/22 07:24:15;;;;;;;;;;;;;;;34.80;28.43;100653.94;5352257;32;34171;-77
2023/06/22 07:27:21;;;;;;;;;;;;;;;35.70;27.40;100654.97;5359443;32;34829;-78
2023/06/22 07:30:23;;;;;;;;;;;;;;;36.51;26.25;100646.03;5362056;32;35511;-78
2023/06/22 07:33:25;;;;;;;;;;;;;;;35.10;27.63;100645.28;5353914;32;34545;-68
2023/06/22 07:36:30;;;;;;;;;;;;;;;36.04;26.27;100645.53;5369863;32;34407;-70
2023/06/22 07:39:32;;;;;;;;;;;;;;;35.76;27.36;100653.25;5360368;32;35645;-69
2023/06/22 07:42:34;;;;;;;;;;;;;;;36.05;26.59;100655.41;5359727;32;34109;-71
2023/06/22 07:45:37;;;;;;;;;;;;;;;35.92;27.10;100658.25;5362659;32;35391;-68
2023/06/22 07:48:41;;;;;;;;;;;;;;;35.78;28.55;100657.44;5361531;32;34844;-70
2023/06/22 07:51:43;;;;;;;;;;;;;;;37.90;25.09;100641.75;5355712;32;36018;-71
2023/06/22 07:54:45;;;;;;;;;;;;;;;38.66;23.90;100644.78;5350976;32;33705;-71
2023/06/22 07:57:48;;;;;;;;;;;;;;;37.69;24.63;100642.25;5358767;32;35559;-70
2023/06/22 08:00:50;;;;;;;;;;;;;;;35.97;27.69;100646.66;5359627;32;34234;-71
2023/06/22 08:03:52;;;;;;;;;;;;;;;34.23;29.47;100636.28;5363117;32;35578;-75
2023/06/22 08:06:54;;;;;;;;;;;;;;;35.27;29.40;100627.37;5362316;32;34745;-71
2023/06/22 08:09:57;;;;;;;;;;;;;;;37.62;25.64;100628.62;5363464;32;35401;-69
2023/06/22 08:13:01;;;;;;;;;;;;;;;37.80;26.00;100626.94;5365994;32;35028;-74
2023/06/22 08:16:03;;;;;;;;;;;;;;;36.41;27.01;100623.81;5362360;32;34265;-70
2023/06/22 08:19:05;;;;;;;;;;;;;;;37.48;25.48;100629.03;5359517;32;33845;-71
2023/06/22 08:22:07;;;;;;;;;;;;;;;39.32;23.23;100623.47;5360702;32;34084;-71
2023/06/22 08:25:10;;;;;;;;;;;;;;;37.12;25.74;100615.12;5363204;32;35099;-70
2023/06/22 08:28:13;;;;;;;;;;;;;;;38.37;24.29;100627.34;5368432;32;35375;-76
2023/06/22 08:31:15;;;;;;;;;;;;;;;36.81;26.84;100627.00;5356204;32;35317;-70
2023/06/22 08:34:21;;;;;;;;;;;;;;;38.42;24.69;100625.56;5331141;32;35257;-71
2023/06/22 08:37:30;;;;;;;;;;;;;;;37.67;25.23;100616.94;5377322;32;32808;-71
2023/06/22 08:40:33;;;;;;;;;;;;;;;38.31;24.94;100611.81;5394161;32;34209;-70
2023/06/22 08:43:35;;;;;;;;;;;;;;;38.47;24.49;100608.38;5393015;32;35301;-69
2023/06/22 08:46:38;;;;;;;;;;;;;;;37.67;25.89;100612.31;5396519;32;34073;-70
2023/06/22 08:49:40;;;;;;;;;;;;;;;37.21;26.66;100617.53;5395615;32;36052;-73
2023/06/22 08:52:43;;;;;;;;;;;;;;;37.13;26.82;100611.31;5396689;32;35353;-70
2023/06/22 08:55:45;;;;;;;;;;;;;;;40.33;22.76;100608.91;5396578;32;34059;-70
2023/06/22 08:58:47;;;;;;;;;;;;;;;37.11;26.75;100605.22;5388784;32;34400;-69
2023/06/22 09:01:49;;;;;;;;;;;;;;;38.80;24.66;100590.47;5397237;32;34240;-73
2023/06/22 09:04:55;;;;;;;;;;;;;;;38.58;25.24;100596.56;5397933;32;34304;-71
2023/06/22 09:07:58;;;;;;;;;;;;;;;38.44;25.18;100595.09;5394342;32;35563;-74
2023/06/22 09:11:00;;;;;;;;;;;;;;;38.97;24.54;100592.25;5394552;32;35388;-74
2023/06/22 09:14:03;;;;;;;;;;;;;;;38.29;25.66;100592.00;5378261;32;33539;-70
2023/06/22 09:17:05;;;;;;;;;;;;;;;38.56;25.50;100584.12;5399382;32;35479;-72
2023/06/22 09:20:10;;;;;;;;;;;;;;;39.00;24.58;100582.66;5360881;32;34257;-71
2023/06/22 09:23:12;;;;;;;;;;;;;;;38.85;24.88;100582.34;5397648;32;35479;-70
2023/06/22 09:26:14;;;;;;;;;;;;;;;36.98;27.61;100582.63;5396222;32;35448;-70
2023/06/22 09:29:16;;;;;;;;;;;;;;;39.12;24.79;100574.41;5362829;32;35335;-72
2023/06/22 09:32:19;;;;;;;;;;;;;;;38.84;25.28;100572.41;5399842;32;35487;-79
2023/06/22 09:35:20;;;;;;;;;;;;;;;38.59;25.83;100576.25;5387896;32;35301;-68
2023/06/22 09:38:23;;;;;;;;;;;;;;;39.11;25.11;100572.75;5399863;32;34371;-75
2023/06/22 09:41:25;;;;;;;;;;;;;;;38.93;25.02;100565.50;5386864;32;34776;-72
2023/06/22 09:44:27;;;;;;;;;;;;;;;37.06;27.51;100566.72;5392181;32;34684;-75
2023/06/22 09:47:29;;;;;;;;;;;;;;;40.80;23.11;100563.59;5379854;32;34327;-68
2023/06/22 09:50:31;;;;;;;;;;;;;;;39.68;24.34;100570.88;5387254;32;34364;-78
2023/06/22 09:53:37;;;;;;;;;;;;;;;38.86;25.92;100571.12;5390189;32;35368;-74
2023/06/22 09:56:39;;;;;;;;;;;;;;;37.24;27.83;100565.87;5393976;32;35670;-75
2023/06/22 09:59:41;;;;;;;;;;;;;;;39.77;24.73;100571.31;5393758;32;34757;-80
2023/06/22 10:02:43;;;;;;;;;;;;;;;38.13;26.90;100560.56;5389773;32;34141;-74
2023/06/22 10:05:46;;;;;;;;;;;;;;;40.10;23.80;100570.50;5394018;32;33899;-67
2023/06/22 10:08:49;;;;;;;;;;;;;;;40.92;23.07;100556.06;5404466;32;34407;-88
2023/06/22 10:11:51;;;;;;;;;;;;;;;41.33;22.38;100562.09;5383673;32;35796;-70
2023/06/22 10:14:53;;;;;;;;;;;;;;;39.56;24.55;100567.31;5387485;32;34338;-77
2023/06/22 10:17:56;;;;;;;;;;;;;;;39.05;25.13;100565.47;5397767;32;34209;-73
2023/06/22 10:20:58;;;;;;;;;;;;;;;40.66;23.65;100563.13;5393504;32;32595;-69
2023/06/22 10:24:05;;;;;;;;;;;;;;;41.03;22.68;100559.78;5391275;32;36208;-68
2023/06/22 10:27:08;;;;;;;;;;;;;;;41.79;21.55;100548.78;5395217;32;34664;-74
2023/06/22 10:30:12;;;;;;;;;;;;;;;40.88;23.00;100549.37;5382551;32;34363;-71
2023/06/22 10:33:14;;;;;;;;;;;;;;;40.91;22.89;100537.88;5398010;32;35863;-73
2023/06/22 10:36:16;;;;;;;;;;;;;;;43.60;19.60;100549.22;5374991;32;34272;-69
2023/06/22 10:39:18;;;;;;;;;;;;;;;40.31;23.73;100544.12;5388071;32;34436;-67
2023/06/22 10:42:20;;;;;;;;;;;;;;;42.86;20.53;100542.06;5385055;32;34201;-75
2023/06/22 10:45:22;;;;;;;;;;;;;;;40.05;23.82;100540.16;5384550;32;35169;-76
2023/06/22 10:48:24;;;;;;;;;;;;;;;40.68;23.37;100536.16;5385008;32;34297;-72
2023/06/22 10:51:28;;;;;;;;;;;;;;;42.60;21.66;100527.31;5388943;32;35491;-81
2023/06/22 10:54:30;;;;;;;;;;;;;;;39.25;24.87;100538.41;5396873;32;33569;-77
2023/06/22 10:57:32;;;;;;;;;;;;;;;41.70;21.83;100526.31;5403701;32;34395;-80
2023/06/22 11:00:34;;;;;;;;;;;;;;;41.59;22.19;100533.66;5397835;32;34222;-76
2023/06/22 11:03:36;;;;;;;;;;;;;;;41.14;22.81;100526.56;5392729;32;34650;-78
2023/06/22 11:06:38;;;;;;;;;;;;;;;44.58;19.18;100517.66;5403865;32;35504;-80
2023/06/22 11:09:40;;;;;;;;;;;;;;;41.73;21.53;100530.47;5396369;32;34413;-81
2023/06/22 11:12:42;;;;;;;;;;;;;;;41.69;22.07;100532.94;5403848;32;33482;-70
2023/06/22 11:15:44;;;;;;;;;;;;;;;42.47;20.39;100523.06;5401843;32;34914;-82
2023/06/22 11:18:46;;;;;;;;;;;;;;;41.43;22.04;100520.84;5403806;32;35436;-69
2023/06/22 11:21:48;;;;;;;;;;;;;;;41.22;22.33;100513.41;5395243;32;34473;-84
2023/06/22 11:24:50;;;;;;;;;;;;;;;39.30;24.26;100522.03;5388220;32;35611;-77
2023/06/22 11:27:53;;;;;;;;;;;;;;;38.94;25.05;100523.19;5405334;32;35170;-79
2023/06/22 11:30:55;;;;;;;;;;;;;;;42.14;21.03;100502.13;5399803;32;35684;-76
2023/06/22 11:33:59;;;;;;;;;;;;;;;41.22;22.06;100506.00;5379029;32;35809;-81
2023/06/22 11:37:02;;;;;;;;;;;;;;;40.43;23.16;100505.47;5391871;32;34508;-70
2023/06/22 11:40:05;;;;;;;;;;;;;;;40.22;23.64;100507.94;5394296;32;34259;-69
2023/06/22 11:43:08;;;;;;;;;;;;;;;39.63;24.29;100515.78;5395275;32;35421;-75
2023/06/22 11:46:10;;;;;;;;;;;;;;;40.15;23.91;100504.53;5397568;32;34456;-70
2023/06/22 11:49:12;;;;;;;;;;;;;;;41.16;22.41;100496.00;5399198;32;34123;-74
2023/06/22 11:52:14;;;;;;;;;;;;;;;40.72;23.30;100495.16;5399466;32;34281;-71
2023/06/22 11:55:19;;;;;;;;;;;;;;;43.13;20.25;100496.84;5399135;32;35463;-78
2023/06/22 11:58:21;;;;;;;;;;;;;;;42.44;20.70;100490.44;5396706;32;34190;-84
2023/06/22 12:01:24;;;;;;;;;;;;;;;41.84;21.73;100493.63;5401833;32;34110;-74
2023/06/22 12:04:26;;;;;;;;;;;;;;;40.82;22.45;100487.84;5397160;32;35106;-75
2023/06/22 12:07:28;;;;;;;;;;;;;;;38.58;25.59;100492.22;5399840;32;35549;-70
2023/06/22 12:10:30;;;;;;;;;;;;;;;37.66;27.35;100489.16;5400227;32;34209;-75
2023/06/22 12:13:32;;;;;;;;;;;;;;;37.53;27.49;100490.19;5396500;32;35461;-71
2023/06/22 12:16:34;;;;;;;;;;;;;;;36.69;29.46;100488.34;5399815;32;34690;-64
2023/06/22 12:19:36;;;;;;;;;;;;;;;37.55;27.68;100484.47;5396208;32;34219;-70
2023/06/22 12:22:39;;;;;;;;;;;;;;;37.47;27.93;100482.91;5400629;32;36119;-73
2023/06/22 12:25:41;;;;;;;;;;;;;;;35.59;30.90;100474.41;5396401;32;34126;-73
2023/06/22 12:28:43;;;;;;;;;;;;;;;36.46;29.47;100468.00;5399189;32;36415;-81
2023/06/22 12:31:45;;;;;;;;;;;;;;;37.19;27.96;100467.06;5387178;32;34688;-74
2023/06/22 12:34:47;;;;;;;;;;;;;;;36.75;28.80;100458.16;5389185;32;35169;-69
2023/06/22 12:37:49;;;;;;;;;;;;;;;36.35;29.62;100461.31;5399935;32;34252;-69
2023/06/22 12:40:51;;;;;;;;;;;;;;;35.60;30.87;100465.16;5402268;32;34166;-71
2023/06/22 12:43:53;;;;;;;;;;;;;;;35.56;31.07;100463.94;5392298;32;34127;-72
2023/06/22 12:46:55;;;;;;;;;;;;;;;36.78;28.76;100454.13;5403455;32;36331;-73
2023/06/22 12:49:57;;;;;;;;;;;;;;;36.35;29.36;100455.84;5404595;32;34105;-73
2023/06/22 12:53:01;;;;;;;;;;;;;;;36.63;29.12;100450.94;5400054;32;35667;-78
2023/06/22 12:56:04;;;;;;;;;;;;;;;37.08;28.22;100454.16;5398752;32;34258;-70
2023/06/22 12:59:06;;;;;;;;;;;;;;;36.99;27.96;100450.91;5403664;32;34182;-78
2023/06/22 13:02:08;;;;;;;;;;;;;;;36.50;28.88;100446.44;5402242;32;34237;-70
2023/06/22 13:05:10;;;;;;;;;;;;;;;36.26;29.00;100450.87;5397042;32;34331;-75
2023/06/22 13:08:13;;;;;;;;;;;;;;;37.02;28.09;100449.59;5402762;32;34372;-77
2023/06/22 13:11:15;;;;;;;;;;;;;;;35.64;30.38;100442.62;5403020;32;34163;-72
2023/06/22 13:14:17;;;;;;;;;;;;;;;35.21;31.12;100447.94;5402320;32;36917;-79
2023/06/22 13:17:19;;;;;;;;;;;;;;;35.52;30.83;100428.00;5401827;32;36048;-80
2023/06/22 13:20:21;;;;;;;;;;;;;;;36.33;29.75;100424.31;5403625;32;34165;-75
2023/06/22 13:23:25;;;;;;;;;;;;;;;36.87;29.11;100425.38;5394885;32;34934;-75
2023/06/22 13:26:28;;;;;;;;;;;;;;;37.05;28.74;100422.59;5398860;32;34436;-74
2023/06/22 13:29:31;;;;;;;;;;;;;;;37.51;27.49;100420.22;5376793;32;34207;-75
2023/06/22 13:32:33;;;;;;;;;;;;;;;36.82;28.50;100416.97;5396577;32;34168;-74
2023/06/22 13:35:35;;;;;;;;;;;;;;;36.98;28.06;100419.13;5398354;32;34161;-71
2023/06/22 13:38:38;;;;;;;;;;;;;;;36.51;29.35;100420.75;5396138;32;34170;-72
2023/06/22 13:41:40;;;;;;;;;;;;;;;36.60;29.03;100420.22;5401758;32;34297;-78
2023/06/22 13:44:42;;;;;;;;;;;;;;;36.12;29.66;100417.38;5397735;32;33769;-73
2023/06/22 13:47:44;;;;;;;;;;;;;;;36.10;29.77;100413.19;5399321;32;35529;-72
2023/06/22 13:50:46;;;;;;;;;;;;;;;36.50;28.95;100411.69;5405789;32;34295;-77
2023/06/22 13:53:48;;;;;;;;;;;;;;;35.81;30.49;100407.38;5400958;32;34105;-71
2023/06/22 13:56:50;;;;;;;;;;;;;;;35.45;30.99;100408.09;5402153;32;34193;-71
2023/06/22 13:59:52;;;;;;;;;;;;;;;36.27;29.73;100401.44;5384719;32;34283;-73
2023/06/22 14:02:56;;;;;;;;;;;;;;;36.76;28.92;100404.22;5403496;32;33565;-71
2023/06/22 14:05:59;;;;;;;;;;;;;;;36.34;29.61;100404.09;5400326;32;34646;-75
2023/06/22 14:09:01;;;;;;;;;;;;;;;36.31;29.70;100399.06;5382775;32;34091;-74
2023/06/22 14:12:04;;;;;;;;;;;;;;;35.75;30.55;100400.91;5401343;32;34532;-74
2023/06/22 14:15:07;;;;;;;;;;;;;;;36.57;29.06;100393.28;5394638;32;34178;-73
2023/06/22 14:18:08;;;;;;;;;;;;;;;35.97;30.05;100384.09;5402797;32;34312;-74
2023/06/22 14:21:11;;;;;;;;;;;;;;;36.29;29.83;100382.06;5396028;32;34461;-76
2023/06/22 14:24:13;;;;;;;;;;;;;;;36.29;29.72;100391.09;5387873;32;35376;-73
2023/06/22 14:27:15;;;;;;;;;;;;;;;36.64;29.12;100370.47;5397570;32;34232;-75
2023/06/22 14:30:18;;;;;;;;;;;;;;;36.19;29.80;100371.63;5396962;32;34308;-79
2023/06/22 14:33:20;;;;;;;;;;;;;;;36.43;29.45;100369.91;5399610;32;35041;-73
2023/06/22 14:36:22;;;;;;;;;;;;;;;36.45;28.79;100362.28;5403046;32;34382;-72
2023/06/22 14:39:24;;;;;;;;;;;;;;;35.26;30.85;100368.91;5403358;32;34194;-72
2023/06/22 14:42:26;;;;;;;;;;;;;;;35.95;29.80;100362.44;5400054;32;35720;-85
2023/06/22 14:45:42;;;;;;;;;;;;;;;35.68;30.14;100361.00;5400931;32;34745;-71
2023/06/22 14:48:44;;;;;;;;;;;;;;;36.10;28.93;100361.22;5405107;32;35556;-72
2023/06/22 14:51:46;;;;;;;;;;;;;;;36.38;28.94;100350.56;5401328;32;36172;-72
2023/06/22 14:54:50;;;;;;;;;;;;;;;36.35;29.02;100356.50;5407334;32;35507;-81
2023/06/22 14:57:53;;;;;;;;;;;;;;;36.32;28.37;100362.41;5403735;32;34302;-82
2023/06/22 15:00:55;;;;;;;;;;;;;;;35.68;30.07;100355.53;5406213;32;32903;-71
2023/06/22 15:03:57;;;;;;;;;;;;;;;36.20;28.91;100345.13;5403341;32;34017;-81
2023/06/22 15:06:59;;;;;;;;;;;;;;;35.51;30.11;100347.09;5407162;32;34740;-73
2023/06/22 15:10:01;;;;;;;;;;;;;;;35.44;29.88;100346.31;5402048;32;34309;-80
2023/06/22 15:13:03;;;;;;;;;;;;;;;35.31;30.22;100343.66;5404544;32;34575;-72
2023/06/22 15:16:05;;;;;;;;;;;;;;;36.22;28.50;100340.25;5409309;32;35559;-82
2023/06/22 15:19:07;;;;;;;;;;;;;;;35.69;29.31;100336.19;5391671;32;34330;-72
2023/06/22 15:22:09;;;;;;;;;;;;;;;35.57;29.92;100331.69;5411176;32;34372;-81
2023/06/22 15:25:11;;;;;;;;;;;;;;;35.20;30.67;100326.09;5374528;32;975228;-81
2023/06/22 15:28:14;;;;;;;;;;;;;;;35.50;30.18;100326.28;5406020;32;34605;-72
2023/06/22 15:31:15;;;;;;;;;;;;;;;35.17;30.63;100326.53;5406786;32;34418;-82
2023/06/22 15:34:18;;;;;;;;;;;;;;;36.14;28.75;100326.91;5401933;32;34568;-82
2023/06/22 15:37:20;;;;;;;;;;;;;;;35.49;29.87;100328.19;5386477;32;34279;-72